McLoud, OK

12:45 PM CDT on September 18, 2014 (GMT -0500)
SE 29th and XXX Rd | Change Station
CLOSE
Current Station
Personal Weather Station
Location: Choctaw, OK
Elevation: 1206 ft
Nearby Weather Stations

Elev 1206 ft 35.43 °N, 97.23 °W | Updated 20 seconds ago

Partly Cloudy
Partly Cloudy
79.9 °F
Feels Like 83 °F
N
5.6
Wind Variable Wind from SW
Gusts 9.2 mph

Today
High -- | Low -- °F
--% Chance of Precip.
Yesterday
High -- | Low -- °F
Precip. -- in
7:13 AM 7:31 PM
Waning Crescent, 25% visible
Pressure 30.01 in
Visibility 10.0 miles
Clouds Clear
Heat Index 83 °F
Dew Point 69 °F
Humidity 70%
Rainfall 0.00 in
Snow Depth Not available.
UV 9 out of 12
Pollen 10.20 out of 12
Air Quality Not available.
Flu Activity Not available.
METAR KSNL 181735Z AUTO 11004KT 10SM CLR 25/22 A3001 RMK AO2

More Conditions Fewer Conditions

Pressure 30.01 in
Visibility 10.0 miles
Clouds Clear
Heat Index 83 °F
Dew Point 69 °F
Humidity 70%
Rainfall 0.00 in
Snow Depth Not available.
UV 9 out of 12
Pollen 10.20 out of 12
Air Quality Not available.
Flu Activity Not available.
METAR KSNL 181735Z AUTO 11004KT 10SM CLR 25/22 A3001 RMK AO2

More Conditions Fewer Conditions

10-Day Weather Forecast

Almanac

Astronomy

Sep. 18, 2014 Rise Set
Actual Time 7:13 AM CDT 7:31 PM CDT
Civil Twilight 6:47 AM CDT 7:56 PM CDT
Nautical Twilight 6:18 AM CDT 8:26 PM CDT
Astronomical Twilight 5:47 AM CDT 8:56 PM CDT
Moon 2:14 AM CDT 4:15 PM CDT
Length of Visible Light 13h 08m
Length of Day
12h 17m
Tomorrow will be 2m 13s shorter.
Waning Crescent, 25% of the Moon is Illuminated
Today
Waning Crescent
Sep 24
New
Oct 1
First Quarter
Oct 8
Full
Oct 15
Last Quarter

Today's Extremes

State Highs State Lows

Community

WunderPhotos

Upload Photos

1,754,409 photos uploaded!

Nearby

Snow Depth

Station Depth Elevation
No new snow has been reported.

Earthquake Activity

City Distance Mag. Time & Date
Medford, Oklahoma 99 miles 3.0 5:28 AM CDT
2014-09-18
Perry, Oklahoma 54 miles 3.9 2:12 AM CDT
2014-09-18
Helena, Oklahoma 107 miles 2.8 4:01 PM CDT
2014-09-17
Perry, Oklahoma 52 miles 2.5 2:57 PM CDT
2014-09-17
Minimum magnitude displayed is 2.5.

Coastal Water Temperatures

Place Temperature
No Stations Reporting

Nearby Weather Stations